Share

Savoonga, AK

Savoonga (PASA) Elev 52 ft | 63.69 °N, 170.49 °W | Change Station

Current weather conditions updated 7 minutes ago

Overcast
Overcast
25 °F
Feels Like 15 °F
N
10
Wind Variable Wind from ENE
Sunrise 7:37 AM
Sunset 11:06 PM
Moon Waning Gibbous

Today is forecast to be Warmer than yesterday. Some afternoon light snow.

Pressure 29.67 in
Visibility 3.0 miles
Clouds Overcast 800 ft
Windchill 15 °F
Dew Point 19 °F
Humidity 80%
Rainfall 0.00 in
Snow Depth Not available.
UV 0 out of 16
Pollen Not available.
Air Quality Not available.
Flu Activity Sporadic
METAR PASA 190956Z 07009KT 3SM OVC008 M04/M07 A2967 RMK AO1

More Conditions Fewer Conditions

Pressure 29.67 in
Visibility 3.0 miles
Clouds Overcast 800 ft
Windchill 15 °F
Dew Point 19 °F
Humidity 80%
Rainfall 0.00 in
Snow Depth Not available.
UV 0 out of 16
Pollen Not available.
Air Quality Not available.
Flu Activity Sporadic
METAR PASA 190956Z 07009KT 3SM OVC008 M04/M07 A2967 RMK AO1

More Conditions Fewer Conditions

10-Day Weather Forecast

Almanac

Astronomy

Apr. 19, 2014 Rise Set
Actual Time 7:37 AM AKDT 11:06 PM AKDT
Civil Twilight 6:40 AM AKDT 12:04 AM AKDT
Nautical Twilight 5:14 AM AKDT 1:33 AM AKDT
Astronomical Twilight Sun does not rise Sun does not rise
Moon 3:56 AM AKDT 10:15 AM AKDT
Length of Visible Light 17h 23m
Length of Day
15h 29m
Tomorrow will be 6m 29s longer.
Waning Gibbous, 81% of the Moon is Illuminated
Today
Waning Gibbous
Apr 22
Last Quarter
Apr 29
New
May 6
First Quarter
May 14
Full

Today's Extremes

State Highs State Lows

Community

  • Bleeding Hearts
    Bleeding Hearts
  • Sunset Silhouettes
    Sunset Silhouettes
  • FL sunset Perico Isle
    FL sunset Perico Isle
  • Cloudy spring view
    Cloudy spring view
  • Old barn
    Old barn

WunderPhotos

Upload Photos

1,702,676 photos uploaded!

WunderBlogs® & News

Nearby

Snow Depth

Station Depth Elevation
Rocky Point 5 in 500 ft
Pargon Creek 3 in 300 ft
Gobblers Knob 8 in 2030 ft
Coldfoot 24 in 1040 ft
Susitna Valley High 18 in 375 ft

Coastal Water Temperatures

Place Temperature
No Stations Reporting

Earthquake Activity

City Distance Mag. Time & Date
No recent earthquake activity has been reported nearby.
Minimum magnitude displayed is 2.5.

Nearby Weather Stations

There are no personal weather stations in this area.

What do you think?

We're not finished. Please let us know what you like, what you don't like, and what you are still missing.